Time;durP1;ratioP1;P1;durP2;ratioP2;P2;SDS_P1;SDS_P2;PMS_P1;PMS_P2;Temp;Humidity;BMP_temperature;BMP_pressure;BME280_temperature;BME280_humidity;BME280_pressure;Samples;Min_cycle;Max_cycle;Signal;HPM_P1;HPM_P2
2022/11/14 00:00:41;;;;;;;20.63;17.43;;;;;;;2.61;100.00;96687.22;4994814;28;20181;-71
2022/11/14 00:03:07;;;;;;;20.43;17.13;;;;;;;2.51;100.00;96685.69;4979723;28;20302;-70
2022/11/14 00:05:38;;;;;;;21.73;17.87;;;;;;;2.43;100.00;96687.59;4977527;28;20285;-72
2022/11/14 00:08:04;;;;;;;21.47;18.17;;;;;;;2.38;100.00;96689.91;4995077;28;20229;-70
2022/11/14 00:10:30;;;;;;;21.73;17.90;;;;;;;2.43;100.00;96682.41;4984365;28;20529;-70
2022/11/14 00:12:55;;;;;;;22.73;17.00;;;;;;;2.38;100.00;96675.19;4975846;28;20662;-70
2022/11/14 00:15:20;;;;;;;21.70;17.10;;;;;;;2.39;100.00;96689.72;4975571;28;20665;-71
2022/11/14 00:17:46;;;;;;;20.13;17.90;;;;;;;2.36;100.00;96690.06;4994474;28;20271;-70
2022/11/14 00:20:12;;;;;;;21.90;18.97;;;;;;;2.31;100.00;96684.63;4995101;28;20652;-71
2022/11/14 00:22:37;;;;;;;20.53;17.60;;;;;;;2.36;100.00;96694.44;4980165;28;20654;-71
2022/11/14 00:25:03;;;;;;;20.07;17.10;;;;;;;2.38;100.00;96688.13;4975239;28;20195;-72
2022/11/14 00:27:28;;;;;;;23.93;19.10;;;;;;;2.45;100.00;96675.28;4994332;28;20237;-70
2022/11/14 00:29:54;;;;;;;22.93;18.93;;;;;;;2.38;100.00;96692.50;4980610;28;20760;-71
2022/11/14 00:32:21;;;;;;;22.93;18.90;;;;;;;2.37;100.00;96691.69;4975089;28;20271;-70
2022/11/14 00:34:47;;;;;;;23.03;18.53;;;;;;;2.39;100.00;96683.75;4989278;28;20267;-70
2022/11/14 00:37:12;;;;;;;22.50;18.53;;;;;;;2.41;100.00;96671.44;4964848;28;20284;-71
2022/11/14 00:39:37;;;;;;;22.50;16.73;;;;;;;2.45;100.00;96660.53;4993874;28;20240;-70
2022/11/14 00:42:03;;;;;;;21.03;17.07;;;;;;;2.31;100.00;96669.13;4994366;28;20219;-70
2022/11/14 00:44:28;;;;;;;23.87;18.40;;;;;;;2.34;100.00;96668.75;4991430;28;20180;-70
2022/11/14 00:46:53;;;;;;;21.63;17.30;;;;;;;2.19;100.00;96670.53;4993676;28;20624;-71
2022/11/14 00:49:19;;;;;;;23.93;18.23;;;;;;;2.32;100.00;96654.41;4993737;28;20184;-71
2022/11/14 00:51:44;;;;;;;24.23;18.47;;;;;;;2.19;100.00;96660.19;4990129;28;20223;-70
2022/11/14 00:54:10;;;;;;;22.10;17.43;;;;;;;2.22;100.00;96662.44;4982226;28;20184;-71
2022/11/14 00:56:35;;;;;;;20.00;17.60;;;;;;;2.16;100.00;96657.97;4977337;28;20197;-71
2022/11/14 00:59:00;;;;;;;22.20;17.87;;;;;;;2.22;100.00;96657.25;4974738;28;20255;-70
2022/11/14 01:01:26;;;;;;;22.27;16.43;;;;;;;2.22;100.00;96653.88;4977706;28;20284;-70
2022/11/14 01:03:51;;;;;;;19.53;16.20;;;;;;;2.30;100.00;96646.81;4993890;28;20238;-70
2022/11/14 01:06:18;;;;;;;20.23;16.47;;;;;;;2.29;100.00;96642.63;4962132;28;20184;-71
2022/11/14 01:08:43;;;;;;;21.87;16.87;;;;;;;2.28;100.00;96645.41;4974164;28;20704;-70
2022/11/14 01:11:11;;;;;;;20.83;17.07;;;;;;;2.29;100.00;96644.41;4974822;28;20177;-70
2022/11/14 01:13:37;;;;;;;19.63;16.90;;;;;;;2.29;100.00;96647.00;4991519;28;20192;-70
2022/11/14 01:16:02;;;;;;;20.87;16.87;;;;;;;2.29;100.00;96647.78;4991157;28;20187;-70
2022/11/14 01:18:28;;;;;;;21.37;17.47;;;;;;;2.32;100.00;96647.47;4977969;28;20181;-71
2022/11/14 01:20:53;;;;;;;20.90;16.55;;;;;;;2.23;100.00;96647.72;4973942;28;20288;-71
2022/11/14 01:23:18;;;;;;;20.87;16.57;;;;;;;2.35;100.00;96636.75;4974136;28;20409;-70
2022/11/14 01:25:44;;;;;;;20.77;16.23;;;;;;;2.35;100.00;96639.31;4987677;28;20222;-71
2022/11/14 01:28:12;;;;;;;22.53;17.10;;;;;;;2.42;100.00;96642.00;4972178;28;20566;-70
2022/11/14 01:30:38;;;;;;;22.20;18.73;;;;;;;2.38;100.00;96643.34;4973485;28;20193;-71
2022/11/14 01:33:04;;;;;;;21.43;17.40;;;;;;;2.32;100.00;96642.28;4991570;28;20246;-71
2022/11/14 01:35:33;;;;;;;21.57;16.67;;;;;;;2.33;100.00;96640.50;4993263;28;20180;-70
2022/11/14 01:37:58;;;;;;;22.10;16.17;;;;;;;2.32;100.00;96639.69;4979021;28;20243;-71
2022/11/14 01:40:24;;;;;;;21.73;17.60;;;;;;;2.26;100.00;96632.66;4974073;28;20552;-71
2022/11/14 01:43:17;;;;;;;19.83;15.93;;;;;;;2.44;100.00;96624.53;4974038;28;20199;-71
2022/11/14 01:46:03;;;;;;;18.77;16.47;;;;;;;2.46;100.00;96622.56;4956605;28;20196;-70
2022/11/14 01:48:40;;;;;;;23.47;16.30;;;;;;;2.33;100.00;96632.75;4974550;28;20191;-71
2022/11/14 01:51:20;;;;;;;20.53;17.17;;;;;;;2.23;100.00;96619.28;4986149;28;20263;-70
2022/11/14 01:53:48;;;;;;;23.50;17.77;;;;;;;2.30;100.00;96627.91;4966522;28;20203;-70
2022/11/14 01:56:17;;;;;;;19.87;16.27;;;;;;;2.24;100.00;96619.09;4973379;28;20189;-71
2022/11/14 01:58:48;;;;;;;19.70;16.43;;;;;;;2.17;100.00;96612.25;4974164;28;20538;-71
2022/11/14 02:01:13;;;;;;;21.40;16.13;;;;;;;2.19;100.00;96612.84;4973881;28;20176;-71
2022/11/14 02:03:41;;;;;;;19.13;16.53;;;;;;;2.27;100.00;96615.34;4973973;28;20196;-71
2022/11/14 02:06:10;;;;;;;21.30;17.00;;;;;;;2.25;100.00;96615.53;4989992;28;20222;-71
2022/11/14 02:08:35;;;;;;;20.07;16.23;;;;;;;2.12;100.00;96620.50;4973832;28;20227;-71
2022/11/14 02:11:01;;;;;;;19.97;16.40;;;;;;;2.06;100.00;96608.31;4981988;28;20192;-72
2022/11/14 02:13:26;;;;;;;21.13;16.73;;;;;;;2.09;100.00;96613.94;4993115;28;20676;-71
2022/11/14 02:15:52;;;;;;;20.13;16.50;;;;;;;1.99;100.00;96617.75;4992715;28;20199;-71
2022/11/14 02:18:17;;;;;;;20.90;16.00;;;;;;;2.05;100.00;96611.88;4975037;28;20208;-71
2022/11/14 02:20:42;;;;;;;19.17;16.37;;;;;;;2.04;100.00;96612.84;4982497;28;20261;-70
2022/11/14 02:23:12;;;;;;;21.73;16.30;;;;;;;1.99;100.00;96615.97;4963927;28;20294;-71
2022/11/14 02:25:38;;;;;;;19.87;16.47;;;;;;;2.04;100.00;96612.84;4992683;28;20292;-71
2022/11/14 02:28:08;;;;;;;17.70;15.60;;;;;;;2.00;100.00;96619.38;4985740;28;20287;-71
2022/11/14 02:30:33;;;;;;;21.30;16.83;;;;;;;2.07;100.00;96628.00;4974484;28;20207;-70
2022/11/14 02:32:59;;;;;;;23.30;16.33;;;;;;;1.93;100.00;96624.44;4974609;28;20241;-70
2022/11/14 02:35:24;;;;;;;21.60;16.83;;;;;;;1.98;100.00;96621.31;4956416;28;20192;-70
2022/11/14 02:37:49;;;;;;;21.37;17.30;;;;;;;1.93;100.00;96615.88;4974307;28;20193;-70
2022/11/14 02:40:15;;;;;;;19.70;15.93;;;;;;;1.88;100.00;96613.81;4992763;28;20692;-70
2022/11/14 02:42:40;;;;;;;19.20;16.17;;;;;;;1.86;100.00;96607.22;4992781;28;20698;-71
2022/11/14 02:45:07;;;;;;;18.57;15.37;;;;;;;1.83;100.00;96605.81;4991433;28;20598;-70
2022/11/14 02:47:32;;;;;;;19.97;16.83;;;;;;;1.77;100.00;96608.28;4992015;28;20188;-70
2022/11/14 02:49:57;;;;;;;23.77;16.97;;;;;;;1.88;100.00;96616.41;4975109;28;20191;-70
2022/11/14 02:52:23;;;;;;;23.77;18.57;;;;;;;1.86;100.00;96613.19;4977446;28;20310;-70
2022/11/14 02:54:48;;;;;;;28.50;17.63;;;;;;;1.79;100.00;96614.06;4979406;28;20272;-72
2022/11/14 02:57:13;;;;;;;30.80;19.13;;;;;;;1.79;100.00;96622.59;4972729;28;20216;-71
2022/11/14 02:59:39;;;;;;;29.73;18.97;;;;;;;1.65;100.00;96619.03;4976358;28;20189;-70
2022/11/14 03:02:04;;;;;;;51.53;20.03;;;;;;;1.56;100.00;96611.53;4984144;28;20200;-70
2022/11/14 03:04:29;;;;;;;30.03;18.10;;;;;;;1.57;100.00;96613.13;4973444;28;20193;-71
2022/11/14 03:06:55;;;;;;;41.10;17.53;;;;;;;1.39;100.00;96610.88;4973310;28;20232;-72
2022/11/14 03:09:20;;;;;;;26.30;18.00;;;;;;;1.36;100.00;96602.66;4976684;28;20211;-71
2022/11/14 03:11:45;;;;;;;27.50;17.07;;;;;;;1.23;100.00;96606.59;4990394;28;20235;-71
2022/11/14 03:14:11;;;;;;;31.23;17.37;;;;;;;1.12;100.00;96588.16;4984667;28;20188;-71
2022/11/14 03:16:36;;;;;;;48.97;17.50;;;;;;;1.20;100.00;96590.69;4994518;28;20671;-70
2022/11/14 03:19:01;;;;;;;26.33;16.43;;;;;;;1.19;100.00;96576.16;4976464;28;20192;-71
2022/11/14 03:21:27;;;;;;;19.53;16.50;;;;;;;1.28;100.00;96584.66;4976177;28;20197;-71
2022/11/14 03:23:52;;;;;;;20.10;16.47;;;;;;;1.27;100.00;96586.44;4975915;28;20265;-71
2022/11/14 03:26:18;;;;;;;20.13;16.60;;;;;;;1.51;100.00;96580.25;4976322;28;20279;-71
2022/11/14 03:28:43;;;;;;;20.13;17.50;;;;;;;1.53;100.00;96576.53;4976851;28;20243;-72
2022/11/14 03:31:10;;;;;;;22.07;18.57;;;;;;;1.50;100.00;96574.31;4976351;28;20189;-71
2022/11/14 03:33:36;;;;;;;23.43;18.07;;;;;;;1.37;100.00;96568.94;4979801;28;20251;-70
2022/11/14 03:36:03;;;;;;;24.60;18.23;;;;;;;1.34;100.00;96566.69;4976173;28;20657;-71
2022/11/14 03:38:28;;;;;;;21.40;17.83;;;;;;;1.41;100.00;96556.47;4960409;28;20211;-70
2022/11/14 03:40:56;;;;;;;23.50;18.93;;;;;;;1.58;100.00;96560.50;4982479;28;20192;-69
2022/11/14 03:43:22;;;;;;;23.93;17.17;;;;;;;1.63;100.00;96537.53;4994928;28;20594;-70
2022/11/14 03:45:47;;;;;;;22.63;17.13;;;;;;;1.74;100.00;96536.28;4995473;28;20196;-70
2022/11/14 03:48:13;;;;;;;22.10;17.43;;;;;;;1.87;100.00;96545.03;4966423;28;20183;-70
2022/11/14 03:50:39;;;;;;;24.87;17.60;;;;;;;1.95;100.00;96557.06;4995140;28;20676;-71
2022/11/14 03:53:04;;;;;;;22.10;17.40;;;;;;;1.91;100.00;96550.63;4983687;28;20206;-70
2022/11/14 03:55:30;;;;;;;23.93;18.70;;;;;;;2.00;100.00;96567.69;4978500;28;20555;-70
2022/11/14 03:57:55;;;;;;;27.70;18.33;;;;;;;1.96;100.00;96576.75;4993818;28;20188;-71
2022/11/14 04:00:20;;;;;;;23.40;19.60;;;;;;;1.92;100.00;96576.31;4994797;28;20222;-70
2022/11/14 04:02:46;;;;;;;22.53;18.23;;;;;;;1.97;100.00;96574.00;4994766;28;20196;-70
2022/11/14 04:05:12;;;;;;;23.13;18.40;;;;;;;1.99;100.00;96577.22;4994701;28;20211;-71
2022/11/14 04:07:37;;;;;;;23.40;18.40;;;;;;;2.01;100.00;96570.06;4978762;28;20780;-70
2022/11/14 04:10:03;;;;;;;25.20;19.17;;;;;;;2.01;100.00;96569.25;4990102;28;20204;-70
2022/11/14 04:12:28;;;;;;;24.13;18.70;;;;;;;2.05;100.00;96580.88;4975168;28;20181;-71
2022/11/14 04:14:54;;;;;;;24.77;18.83;;;;;;;2.06;100.00;96580.66;4975489;28;20208;-71
2022/11/14 04:17:19;;;;;;;25.30;18.77;;;;;;;2.02;100.00;96576.03;4988899;28;20195;-70
2022/11/14 04:19:44;;;;;;;26.03;19.00;;;;;;;2.06;100.00;96575.50;4993927;28;20199;-71
2022/11/14 04:22:10;;;;;;;25.23;18.63;;;;;;;2.03;100.00;96572.47;4994457;28;20195;-70
2022/11/14 04:24:35;;;;;;;22.43;17.73;;;;;;;2.02;100.00;96568.28;4994609;28;20563;-71
2022/11/14 04:27:00;;;;;;;23.83;17.97;;;;;;;2.01;100.00;96566.66;4981260;28;20244;-70
2022/11/14 04:29:26;;;;;;;26.67;19.40;;;;;;;2.03;100.00;96554.38;4974960;28;20235;-70
2022/11/14 04:31:51;;;;;;;22.80;18.27;;;;;;;1.91;100.00;96559.19;4977501;28;20196;-71
2022/11/14 04:34:16;;;;;;;23.13;18.37;;;;;;;1.95;100.00;96557.84;4994417;28;20203;-70
2022/11/14 04:36:42;;;;;;;23.53;17.57;;;;;;;2.04;100.00;96546.47;4994349;28;20199;-70
2022/11/14 04:39:07;;;;;;;23.43;18.30;;;;;;;2.09;100.00;96543.34;4976605;28;20267;-71
2022/11/14 04:41:32;;;;;;;22.73;17.57;;;;;;;2.06;100.00;96536.72;4978727;28;20609;-71
2022/11/14 04:43:58;;;;;;;22.37;17.20;;;;;;;2.07;100.00;96535.75;4977828;28;20188;-71
2022/11/14 04:46:23;;;;;;;24.20;17.33;;;;;;;2.05;100.00;96544.69;4985859;28;20566;-70
2022/11/14 04:48:48;;;;;;;20.30;17.20;;;;;;;2.11;100.00;96554.31;4975066;28;20192;-70
2022/11/14 04:51:14;;;;;;;21.60;17.13;;;;;;;2.16;100.00;96546.81;4975202;28;20654;-71
2022/11/14 04:53:39;;;;;;;20.57;17.13;;;;;;;2.18;100.00;96547.41;4968414;28;20290;-71
2022/11/14 04:56:05;;;;;;;20.33;17.07;;;;;;;2.18;100.00;96544.03;4954839;28;20286;-70
2022/11/14 04:58:30;;;;;;;21.00;16.27;;;;;;;2.22;100.00;96528.00;4978297;28;20188;-70
2022/11/14 05:00:56;;;;;;;19.37;15.80;;;;;;;2.14;100.00;96512.56;4987031;28;20184;-70
2022/11/14 05:03:22;;;;;;;20.60;16.30;;;;;;;2.12;100.00;96524.88;4984833;28;20207;-70
2022/11/14 05:05:48;;;;;;;18.07;14.90;;;;;;;2.21;100.00;96512.66;4977754;28;20180;-70
2022/11/14 05:08:13;;;;;;;19.87;15.63;;;;;;;2.18;100.00;96516.38;4993094;28;20230;-70
2022/11/14 05:10:42;;;;;;;18.20;15.43;;;;;;;2.22;100.00;96512.47;4993773;28;20187;-70
2022/11/14 05:13:07;;;;;;;18.97;15.00;;;;;;;2.36;100.00;96516.00;4993419;28;20183;-70
2022/11/14 05:15:32;;;;;;;16.60;14.50;;;;;;;2.30;100.00;96516.72;4989189;28;20180;-70
2022/11/14 05:17:58;;;;;;;17.03;14.10;;;;;;;2.33;100.00;96517.19;4965881;28;20196;-71
2022/11/14 05:20:23;;;;;;;15.60;13.90;;;;;;;2.44;100.00;96521.09;4973462;28;20188;-70
2022/11/14 05:22:53;;;;;;;17.73;15.27;;;;;;;2.47;100.00;96515.53;4992849;28;20269;-71
2022/11/14 05:25:18;;;;;;;18.93;15.63;;;;;;;2.39;100.00;96513.06;4993413;28;20275;-70
2022/11/14 05:27:43;;;;;;;19.60;15.93;;;;;;;2.39;100.00;96505.31;4960090;28;20275;-70
2022/11/14 05:30:09;;;;;;;19.97;16.30;;;;;;;2.47;100.00;96508.59;4986332;28;20180;-70
2022/11/14 05:32:35;;;;;;;20.27;16.30;;;;;;;2.43;100.00;96506.56;4988268;28;20692;-69
2022/11/14 05:35:00;;;;;;;20.93;16.50;;;;;;;2.48;100.00;96507.59;4974141;28;20219;-69
2022/11/14 05:37:25;;;;;;;19.70;16.87;;;;;;;2.45;100.00;96505.38;4979686;28;20180;-69
2022/11/14 05:39:51;;;;;;;18.83;15.83;;;;;;;2.49;100.00;96504.03;4976030;28;20642;-72
2022/11/14 05:42:16;;;;;;;19.47;16.60;;;;;;;2.42;100.00;96499.78;4975550;28;20204;-70
2022/11/14 05:44:41;;;;;;;21.33;16.63;;;;;;;2.51;100.00;96503.84;4992907;28;20696;-70
2022/11/14 05:47:07;;;;;;;20.93;16.63;;;;;;;2.51;100.00;96516.75;4965242;28;20199;-70
2022/11/14 05:49:32;;;;;;;19.03;16.60;;;;;;;2.48;100.00;96506.81;4972087;28;20259;-69
2022/11/14 05:51:57;;;;;;;19.80;16.53;;;;;;;2.49;100.00;96501.44;4969497;28;20205;-72
2022/11/14 05:54:22;;;;;;;19.37;16.53;;;;;;;2.46;100.00;96498.41;4973946;28;20275;-70
2022/11/14 05:56:48;;;;;;;19.50;15.73;;;;;;;2.58;100.00;96506.50;4974150;28;20188;-70
2022/11/14 05:59:13;;;;;;;19.10;15.93;;;;;;;2.66;100.00;96508.97;4973815;28;20646;-69
2022/11/14 06:01:38;;;;;;;19.90;16.40;;;;;;;2.61;100.00;96514.72;4979924;28;20257;-70
2022/11/14 06:04:05;;;;;;;22.17;16.77;;;;;;;2.65;100.00;96522.91;4983671;28;20197;-71
2022/11/14 06:06:30;;;;;;;20.90;16.97;;;;;;;2.76;100.00;96519.81;4973812;28;20307;-70
2022/11/14 06:08:55;;;;;;;22.63;16.77;;;;;;;2.70;100.00;96523.94;4989388;28;20278;-70
2022/11/14 06:11:21;;;;;;;23.10;17.53;;;;;;;2.74;100.00;96525.19;4961013;28;20215;-70
2022/11/14 06:13:47;;;;;;;21.43;17.03;;;;;;;2.83;100.00;96523.28;4992957;28;20232;-69
2022/11/14 06:16:15;;;;;;;20.93;17.63;;;;;;;2.95;100.00;96528.78;4993043;28;20696;-70
2022/11/14 06:18:41;;;;;;;21.23;17.73;;;;;;;3.02;100.00;96530.41;4976985;28;20220;-70
2022/11/14 06:21:18;;;;;;;21.37;17.30;;;;;;;3.05;100.00;96518.91;4992056;28;20184;-70
2022/11/14 06:23:44;;;;;;;19.27;16.23;;;;;;;3.07;100.00;96527.28;4992496;28;20270;-70
2022/11/14 06:26:21;;;;;;;20.50;17.13;;;;;;;3.29;100.00;96526.25;4981685;28;20192;-69
2022/11/14 06:28:48;;;;;;;20.27;16.30;;;;;;;3.27;100.00;96521.28;4952725;28;20225;-72
2022/11/14 06:31:14;;;;;;;20.67;15.63;;;;;;;3.27;100.00;96526.47;4959166;28;20217;-69
2022/11/14 06:33:39;;;;;;;19.03;16.60;;;;;;;3.25;100.00;96527.63;4973202;28;20236;-69
2022/11/14 06:36:06;;;;;;;17.17;15.30;;;;;;;3.23;100.00;96527.81;4973294;28;20189;-69
2022/11/14 06:38:34;;;;;;;16.33;14.57;;;;;;;3.42;100.00;96523.78;4973682;28;20565;-68
2022/11/14 06:41:07;;;;;;;16.43;14.53;;;;;;;3.44;100.00;96532.19;4955311;28;20185;-67
2022/11/14 06:43:35;;;;;;;15.50;13.90;;;;;;;3.65;100.00;96515.78;4959024;28;20182;-69
2022/11/14 06:46:01;;;;;;;15.33;13.73;;;;;;;3.74;100.00;96528.38;4970140;28;20185;-67
2022/11/14 06:48:27;;;;;;;15.87;14.27;;;;;;;3.86;100.00;96526.06;4976667;28;20287;-68
2022/11/14 06:50:54;;;;;;;15.73;14.23;;;;;;;3.95;100.00;96535.31;4973575;28;20191;-69
2022/11/14 06:53:20;;;;;;;14.10;12.70;;;;;;;4.07;100.00;96538.13;4976380;28;20197;-69
2022/11/14 06:56:00;;;;;;;14.13;12.63;;;;;;;4.18;100.00;96533.22;4976313;28;20188;-69
2022/11/14 06:58:27;;;;;;;13.23;11.93;;;;;;;4.18;100.00;96522.84;4974267;28;20181;-69
2022/11/14 07:00:53;;;;;;;13.03;11.83;;;;;;;4.11;100.00;96526.41;4961416;28;20193;-69
2022/11/14 07:03:18;;;;;;;15.53;14.03;;;;;;;4.12;100.00;96520.25;4976355;28;20212;-70
2022/11/14 07:05:43;;;;;;;15.23;13.73;;;;;;;4.23;100.00;96526.66;4976565;28;20192;-69
2022/11/14 07:08:09;;;;;;;18.80;16.90;;;;;;;4.20;100.00;96512.28;4967428;28;20208;-69
2022/11/14 07:10:34;;;;;;;13.20;11.90;;;;;;;4.30;100.00;96527.47;4976407;28;20220;-70
2022/11/14 07:12:59;;;;;;;13.53;12.33;;;;;;;4.43;100.00;96533.53;4976303;28;20486;-69
2022/11/14 07:15:25;;;;;;;11.50;10.40;;;;;;;4.49;100.00;96521.56;4976803;28;20227;-70
2022/11/14 07:17:50;;;;;;;11.03;9.93;;;;;;;4.45;100.00;96523.78;4973016;28;20244;-68
2022/11/14 07:20:17;;;;;;;11.17;10.07;;;;;;;4.46;100.00;96525.34;4951568;28;20655;-67
2022/11/14 07:22:44;;;;;;;11.67;10.53;;;;;;;4.47;100.00;96528.75;4962013;28;20216;-69
2022/11/14 07:25:10;;;;;;;10.90;9.83;;;;;;;4.37;100.00;96531.72;4973592;28;20192;-70
2022/11/14 07:27:35;;;;;;;14.53;10.83;;;;;;;4.47;100.00;96523.56;4956709;28;20236;-69
2022/11/14 07:30:00;;;;;;;11.83;10.73;;;;;;;4.87;100.00;96527.06;4955382;28;20225;-72
2022/11/14 07:32:26;;;;;;;11.73;10.60;;;;;;;4.84;100.00;96519.69;4957082;28;20316;-72
2022/11/14 07:34:51;;;;;;;13.23;11.87;;;;;;;4.59;100.00;96519.41;4955934;28;20673;-72
2022/11/14 07:37:16;;;;;;;13.53;11.60;;;;;;;4.48;100.00;96523.38;4972673;28;20188;-70
2022/11/14 07:39:42;;;;;;;11.73;10.57;;;;;;;4.45;100.00;96528.16;4956877;28;20204;-69
2022/11/14 07:42:07;;;;;;;12.47;9.77;;;;;;;4.37;100.00;96534.31;4956861;28;20296;-69
2022/11/14 07:44:33;;;;;;;10.77;9.70;;;;;;;4.29;100.00;96541.47;4957054;28;20212;-68
2022/11/14 07:46:58;;;;;;;11.40;10.30;;;;;;;4.41;100.00;96545.09;4956936;28;20260;-69
2022/11/14 07:49:23;;;;;;;15.97;14.57;;;;;;;4.49;100.00;96548.31;4960978;28;20342;-69
2022/11/14 07:51:49;;;;;;;13.73;12.33;;;;;;;4.52;100.00;96554.91;4960401;28;20185;-70
2022/11/14 07:54:14;;;;;;;13.77;10.90;;;;;;;4.59;100.00;96551.34;4966490;28;20268;-70
2022/11/14 07:56:39;;;;;;;12.43;11.27;;;;;;;4.66;100.00;96555.75;4970189;28;20266;-70
2022/11/14 07:59:05;;;;;;;12.80;11.50;;;;;;;4.74;100.00;96553.78;4941037;28;20189;-70
2022/11/14 08:01:30;;;;;;;12.73;10.83;;;;;;;4.76;100.00;96556.19;4973626;28;20204;-69
2022/11/14 08:03:55;;;;;;;12.67;10.87;;;;;;;4.89;100.00;96564.81;4964903;28;20224;-69
2022/11/14 08:06:21;;;;;;;11.90;10.70;;;;;;;4.98;100.00;96574.03;4957248;28;20193;-69
2022/11/14 08:08:46;;;;;;;12.83;11.30;;;;;;;4.99;100.00;96580.03;4974661;28;20207;-69
2022/11/14 08:11:11;;;;;;;12.47;11.27;;;;;;;4.97;100.00;96582.81;4974656;28;20642;-69
2022/11/14 08:13:37;;;;;;;14.03;12.57;;;;;;;4.87;100.00;96584.97;4973528;28;20725;-71
2022/11/14 08:16:08;;;;;;;11.30;10.40;;;;;;;4.77;100.00;96591.53;4965247;28;20192;-68
2022/11/14 08:18:34;;;;;;;12.33;11.13;;;;;;;4.78;100.00;96586.16;4956316;28;20666;-69
2022/11/14 08:21:02;;;;;;;12.57;11.37;;;;;;;4.72;100.00;96589.53;4964538;28;20273;-82
2022/11/14 08:23:28;;;;;;;14.63;10.60;;;;;;;4.85;100.00;96597.34;4975110;28;20295;-69
2022/11/14 08:25:53;;;;;;;11.20;9.63;;;;;;;4.99;100.00;96603.41;4962640;28;20284;-71
2022/11/14 08:28:18;;;;;;;10.17;9.17;;;;;;;5.09;100.00;96603.00;4961639;28;20323;-67
2022/11/14 08:30:44;;;;;;;12.07;10.60;;;;;;;5.16;100.00;96612.44;4984052;28;20222;-72
2022/11/14 08:33:09;;;;;;;12.10;10.97;;;;;;;5.20;100.00;96605.03;4994113;28;20191;-69
2022/11/14 08:35:35;;;;;;;12.00;10.80;;;;;;;5.16;100.00;96607.25;4978771;28;20276;-66
2022/11/14 08:38:01;;;;;;;10.40;9.40;;;;;;;5.26;100.00;96605.06;4976382;28;20188;-74
2022/11/14 08:40:27;;;;;;;11.70;10.60;;;;;;;5.20;100.00;96610.22;4994217;28;20267;-66
2022/11/14 08:42:57;;;;;;;11.53;10.33;;;;;;;5.24;100.00;96614.06;4981225;28;20287;-69
2022/11/14 08:45:23;;;;;;;11.50;10.37;;;;;;;5.35;100.00;96603.09;4974328;28;20185;-67
2022/11/14 08:47:52;;;;;;;13.80;12.40;;;;;;;5.40;100.00;96616.28;4973259;28;20223;-66
2022/11/14 08:50:18;;;;;;;13.00;12.00;;;;;;;5.46;100.00;96618.09;4987044;28;20188;-68
2022/11/14 08:52:48;;;;;;;11.53;10.40;;;;;;;5.55;100.00;96629.88;4975056;28;20622;-71
2022/11/14 08:55:14;;;;;;;10.03;9.23;;;;;;;5.71;100.00;96632.09;4975182;28;20188;-66
2022/11/14 08:57:39;;;;;;;12.13;11.13;;;;;;;5.91;100.00;96621.72;4974961;28;20196;-66
2022/11/14 09:00:05;;;;;;;10.80;9.77;;;;;;;6.03;100.00;96625.31;4988722;28;20203;-67
2022/11/14 09:02:31;;;;;;;10.30;9.50;;;;;;;6.13;100.00;96611.91;4991977;28;20291;-69
2022/11/14 09:04:56;;;;;;;9.90;8.97;;;;;;;6.28;100.00;96612.47;4973571;28;20332;-67
2022/11/14 09:07:21;;;;;;;9.83;8.93;;;;;;;6.33;100.00;96615.25;4974194;28;20188;-74
2022/11/14 09:09:46;;;;;;;10.03;9.03;;;;;;;6.37;100.00;96619.06;4965703;28;20629;-70
2022/11/14 09:12:12;;;;;;;9.33;8.37;;;;;;;6.40;100.00;96618.66;4974562;28;20195;-71
2022/11/14 09:14:38;;;;;;;8.93;8.03;;;;;;;6.53;100.00;96625.63;4983938;28;20184;-68
2022/11/14 09:17:03;;;;;;;9.47;8.67;;;;;;;6.50;100.00;96620.81;4976522;28;20181;-68
2022/11/14 09:19:28;;;;;;;9.70;8.90;;;;;;;6.50;100.00;96620.81;4990751;28;20192;-68
2022/11/14 09:21:54;;;;;;;8.63;7.93;;;;;;;6.49;100.00;96612.22;4975548;28;20608;-70
2022/11/14 09:24:19;;;;;;;9.83;8.87;;;;;;;6.51;100.00;96606.81;4989465;28;20181;-67
2022/11/14 09:26:44;;;;;;;10.07;8.87;;;;;;;6.51;100.00;96602.41;4973927;28;20189;-67
2022/11/14 09:29:10;;;;;;;9.67;8.87;;;;;;;6.59;100.00;96614.38;4973373;28;20240;-68
2022/11/14 09:31:35;;;;;;;8.77;7.90;;;;;;;6.62;100.00;96608.78;4973818;28;20509;-68
2022/11/14 09:34:00;;;;;;;9.53;8.60;;;;;;;6.70;100.00;96603.31;4956505;28;20649;-67
2022/11/14 09:36:26;;;;;;;9.50;8.60;;;;;;;6.74;100.00;96612.34;4975592;28;20555;-70
2022/11/14 09:38:51;;;;;;;9.70;8.80;;;;;;;6.80;100.00;96605.50;4993150;28;20234;-73
2022/11/14 09:41:22;;;;;;;10.00;9.10;;;;;;;6.90;100.00;96605.88;4985160;28;20549;-69
2022/11/14 09:44:04;;;;;;;10.03;9.13;;;;;;;6.92;100.00;96598.63;4957823;28;20188;-67
2022/11/14 09:46:36;;;;;;;10.83;8.33;;;;;;;6.95;100.00;96593.81;4989745;28;20211;-66
2022/11/14 09:49:02;;;;;;;8.93;8.13;;;;;;;7.02;100.00;96588.56;4993113;28;20184;-70
2022/11/14 09:51:46;;;;;;;9.90;8.87;;;;;;;6.93;100.00;96588.00;4972363;28;20721;-70
2022/11/14 09:54:20;;;;;;;8.73;7.93;;;;;;;6.97;100.00;96594.38;4973811;28;20180;-69
2022/11/14 09:56:45;;;;;;;9.23;8.53;;;;;;;7.00;100.00;96578.34;4986540;28;20188;-69
2022/11/14 09:59:12;;;;;;;10.57;9.57;;;;;;;7.00;100.00;96572.34;4973216;28;20544;-68
2022/11/14 10:02:15;;;;;;;8.80;8.07;;;;;;;7.13;100.00;96584.50;4957443;28;20243;-70
2022/11/14 10:05:15;;;;;;;10.43;9.57;;;;;;;7.28;100.00;96579.78;4987691;28;20195;-69
2022/11/14 10:07:49;;;;;;;9.33;8.53;;;;;;;7.32;100.00;96580.94;4970825;28;20181;-71
2022/11/14 10:10:36;;;;;;;10.67;9.77;;;;;;;7.30;100.00;96583.75;4993215;28;20286;-69
2022/11/14 10:13:25;;;;;;;12.37;11.30;;;;;;;7.42;100.00;96574.25;4991573;28;20551;-70
2022/11/14 10:16:18;;;;;;;11.27;10.27;;;;;;;7.59;100.00;96573.72;4967387;28;20606;-69
2022/11/14 10:19:10;;;;;;;9.50;8.63;;;;;;;7.74;100.00;96569.81;4985625;28;20215;-69
2022/11/14 10:21:38;;;;;;;9.20;8.50;;;;;;;7.89;100.00;96577.31;4936164;28;20354;-69
2022/11/14 10:24:06;;;;;;;12.53;11.63;;;;;;;7.92;100.00;96572.44;4991602;28;20177;-71
2022/11/14 10:26:41;;;;;;;12.77;11.87;;;;;;;7.96;100.00;96578.06;4976870;28;20188;-69
2022/11/14 10:30:03;;;;;;;14.63;13.70;;;;;;;8.04;100.00;96571.75;4976349;28;20239;-73
2022/11/14 10:33:01;;;;;;;8.43;7.83;;;;;;;7.96;100.00;96572.03;4913454;29;20703;-72
2022/11/14 10:35:32;;;;;;;7.77;7.10;;;;;;;8.03;100.00;96576.16;4988275;28;20186;-72
2022/11/14 10:38:10;;;;;;;35.43;33.13;;;;;;;8.00;100.00;96579.22;4996170;28;20641;-71
2022/11/14 10:40:51;;;;;;;9.37;8.67;;;;;;;8.13;100.00;96588.72;4995848;28;20250;-71
2022/11/14 10:43:32;;;;;;;7.43;6.80;;;;;;;8.13;100.00;96592.16;4977119;28;20201;-71
2022/11/14 10:46:31;;;;;;;6.60;6.10;;;;;;;8.19;100.00;96585.25;4980493;28;20660;-72
2022/11/14 10:48:58;;;;;;;7.80;7.20;;;;;;;8.21;100.00;96578.78;4984192;28;20567;-71
2022/11/14 10:51:36;;;;;;;7.87;7.20;;;;;;;8.40;100.00;96577.03;4994966;28;20207;-70
2022/11/14 10:54:09;;;;;;;6.27;5.83;;;;;;;8.49;100.00;96583.56;4982463;28;20168;-69
2022/11/14 10:56:46;;;;;;;6.93;6.43;;;;;;;8.53;100.00;96579.47;4996025;28;20199;-70
2022/11/14 10:59:11;;;;;;;7.07;6.57;;;;;;;8.43;100.00;96584.41;4986586;28;20263;-69
2022/11/14 11:01:38;;;;;;;11.47;10.77;;;;;;;8.54;100.00;96583.69;4977039;28;20941;-70
2022/11/14 11:04:15;;;;;;;9.37;8.77;;;;;;;8.54;100.00;96573.25;4983920;28;20267;-70
2022/11/14 11:06:41;;;;;;;7.33;6.90;;;;;;;8.55;100.00;96582.69;4995561;28;20188;-71
2022/11/14 11:12:03;;;;;;;5.70;5.30;;;;;;;8.99;100.00;96575.50;4957380;29;20188;-70
2022/11/14 11:14:29;;;;;;;6.43;6.03;;;;;;;9.18;100.00;96559.56;4992530;28;20191;-70
2022/11/14 11:17:21;;;;;;;6.43;5.93;;;;;;;9.15;100.00;96561.81;4995397;28;20188;-70
2022/11/14 11:19:47;;;;;;;6.07;5.77;;;;;;;9.22;100.00;96557.28;4991662;28;20188;-70
2022/11/14 11:22:25;;;;;;;5.67;5.27;;;;;;;9.40;100.00;96559.03;4992058;28;20196;-70
2022/11/14 11:24:51;;;;;;;5.87;5.57;;;;;;;9.60;100.00;96564.75;4976212;28;20185;-69